Lodi, Ohio
Current Conditions -  °F | °C
As of 4:53 PM on Sunday 23 Nov 2014 (Local Time) from KLPR Reporting Station
Clear Clear  
Wind Chill: 56°   Ceiling: Unl
Heat Index: 56°   Visibility: 10mi
Dew Point: 42°   Wind: 12mph
Humidity: 60%   Direction: 140°SE
Pressure: 29.71"   Gusts: NA
Location:  41.03°N, 82.01°W
Report Text: KLPR 232153Z AUTO 14010KT 10SM CLR 13/06 A2971 RMK AO2 SLP061 T01330056 TSNO
Loading
Personal Weather Stations






























Interactive Weather Map New forecast layout! Learn more

10-Day Weather Forecast

Advertisements
Track Severe Weather on mobile